Time;durP1;ratioP1;P1;durP2;ratioP2;P2;SDS_P1;SDS_P2;PMS_P1;PMS_P2;Temp;Humidity;BMP_temperature;BMP_pressure;BME280_temperature;BME280_humidity;BME280_pressure;Samples;Min_cycle;Max_cycle;Signal;HPM_P1;HPM_P2
2021/12/20 00:00:59;;;;;;;13.27;3.45;;;;;;;17.38;43.01;103037.97;4898598;29;20091;-76
2021/12/20 00:03:25;;;;;;;8.20;2.53;;;;;;;17.12;43.76;103032.88;4900514;29;20028;-69
2021/12/20 00:05:51;;;;;;;4.40;2.33;;;;;;;16.84;44.28;103031.97;4900239;29;20028;-69
2021/12/20 00:08:17;;;;;;;5.53;2.28;;;;;;;16.96;43.82;103031.50;4900607;29;20092;-68
2021/12/20 00:10:43;;;;;;;10.00;2.70;;;;;;;16.54;44.51;103035.97;4900259;29;20492;-69
2021/12/20 00:13:09;;;;;;;6.55;2.40;;;;;;;16.88;43.59;103032.19;4900255;29;20036;-69
2021/12/20 00:15:34;;;;;;;5.78;2.40;;;;;;;17.20;43.24;103031.38;4900148;29;20028;-71
2021/12/20 00:18:00;;;;;;;4.20;1.75;;;;;;;17.32;42.82;103028.16;4900209;29;20085;-69
2021/12/20 00:20:26;;;;;;;5.03;2.53;;;;;;;17.36;42.94;103026.41;4900102;29;20029;-69
2021/12/20 00:22:51;;;;;;;9.70;2.72;;;;;;;17.25;43.21;103011.16;4883298;29;20060;-68
2021/12/20 00:25:18;;;;;;;9.27;2.90;;;;;;;17.12;43.55;103019.09;4900292;29;20111;-69
2021/12/20 00:27:43;;;;;;;7.95;3.95;;;;;;;17.13;43.75;103023.47;4900255;29;20031;-69
2021/12/20 00:30:10;;;;;;;7.95;4.85;;;;;;;17.32;43.54;103026.22;4899961;29;20555;-69
2021/12/20 00:32:37;;;;;;;8.07;5.28;;;;;;;17.24;43.85;103020.56;4899743;29;20084;-69
2021/12/20 00:35:04;;;;;;;11.23;5.00;;;;;;;17.36;43.52;103020.88;4899866;29;20441;-70
2021/12/20 00:40:23;;;;;;;9.95;5.80;;;;;;;17.32;43.67;103022.63;4900142;29;20096;-69
2021/12/20 00:42:51;;;;;;;6.40;5.57;;;;;;;17.09;44.04;103013.34;4899609;29;20032;-69
2021/12/20 00:45:18;;;;;;;8.07;6.60;;;;;;;17.26;43.48;103012.78;4899739;29;20064;-69
2021/12/20 00:47:43;;;;;;;10.93;6.43;;;;;;;17.28;43.55;103016.06;4882783;29;20032;-70
2021/12/20 00:50:11;;;;;;;9.90;7.15;;;;;;;17.37;43.38;103015.03;4899421;29;20488;-69
2021/12/20 00:52:37;;;;;;;8.73;6.22;;;;;;;17.28;43.77;103016.06;4899402;29;20068;-69
2021/12/20 00:55:03;;;;;;;6.75;6.15;;;;;;;17.36;43.66;103016.16;4899363;29;20476;-77
2021/12/20 00:57:29;;;;;;;7.93;6.20;;;;;;;17.34;43.30;103020.38;4899690;29;20043;-73
2021/12/20 00:59:55;;;;;;;7.65;6.25;;;;;;;17.36;43.32;103007.88;4899426;29;20033;-69
2021/12/20 01:02:20;;;;;;;10.50;7.68;;;;;;;17.12;43.78;103010.78;4899401;29;20037;-69
2021/12/20 01:04:46;;;;;;;9.38;7.93;;;;;;;17.06;43.74;103008.41;4899407;29;20029;-78
2021/12/20 01:07:12;;;;;;;11.13;8.50;;;;;;;17.00;44.05;103010.44;4899556;29;20088;-71
2021/12/20 01:09:37;;;;;;;11.10;9.52;;;;;;;17.10;43.60;103009.47;4899148;29;20429;-74
2021/12/20 01:12:06;;;;;;;10.80;8.65;;;;;;;17.33;43.29;103002.16;4899115;29;20025;-69
2021/12/20 01:14:35;;;;;;;13.27;9.82;;;;;;;17.37;43.27;102994.88;4899315;29;20035;-69
2021/12/20 01:17:05;;;;;;;12.20;9.48;;;;;;;17.40;43.36;102994.28;4899197;29;20100;-69
2021/12/20 01:19:33;;;;;;;13.02;9.75;;;;;;;17.37;43.27;102992.13;4899159;29;20040;-70
2021/12/20 01:22:00;;;;;;;13.80;11.10;;;;;;;17.25;43.67;102994.56;4899060;29;20092;-68
2021/12/20 01:24:25;;;;;;;15.57;11.18;;;;;;;17.16;44.24;102992.50;4898911;29;20021;-69
2021/12/20 01:26:51;;;;;;;13.85;11.20;;;;;;;17.39;43.79;102984.38;4898962;29;20083;-69
2021/12/20 01:29:17;;;;;;;20.38;10.88;;;;;;;17.62;43.18;102979.78;4899104;29;20058;-69
2021/12/20 01:31:42;;;;;;;15.07;9.95;;;;;;;17.58;43.53;102979.56;4899043;29;20028;-69
2021/12/20 01:34:08;;;;;;;12.52;9.38;;;;;;;17.47;44.13;102975.38;4898849;29;20036;-70
2021/12/20 01:36:34;;;;;;;13.60;9.68;;;;;;;17.45;44.51;102988.66;4898823;29;20039;-69
2021/12/20 01:38:59;;;;;;;14.82;10.10;;;;;;;17.38;44.56;102983.53;4898699;29;20495;-69
2021/12/20 01:41:25;;;;;;;12.43;9.30;;;;;;;17.39;44.46;102987.13;4898676;29;20033;-69
2021/12/20 01:43:53;;;;;;;12.98;9.00;;;;;;;17.35;44.48;102984.13;4898632;29;20055;-69
2021/12/20 01:46:18;;;;;;;9.45;8.13;;;;;;;17.50;44.19;102976.69;4898608;29;20120;-69
2021/12/20 01:48:45;;;;;;;10.10;7.88;;;;;;;17.18;44.78;102981.97;4898498;29;20123;-69
2021/12/20 01:51:30;;;;;;;9.88;8.02;;;;;;;17.57;43.72;102980.69;4898365;29;20039;-69
2021/12/20 01:53:57;;;;;;;10.55;8.32;;;;;;;17.56;43.29;102976.28;4898432;29;20036;-77
2021/12/20 01:56:24;;;;;;;12.13;8.88;;;;;;;17.55;43.61;102980.19;4898342;29;20028;-69
2021/12/20 01:58:50;;;;;;;11.20;9.80;;;;;;;17.51;43.65;102978.31;4898532;29;20032;-69
2021/12/20 02:03:46;;;;;;;10.85;9.75;;;;;;;17.44;44.04;102971.25;4898330;29;20025;-74
2021/12/20 02:06:28;;;;;;;12.10;10.07;;;;;;;17.47;43.72;102969.84;4898237;29;20115;-70
2021/12/20 02:08:56;;;;;;;15.50;13.73;;;;;;;17.39;44.03;102976.06;4881409;29;20132;-69
2021/12/20 02:11:21;;;;;;;15.95;12.43;;;;;;;17.36;44.22;102969.19;4898283;29;20029;-69
2021/12/20 02:13:48;;;;;;;18.65;15.65;;;;;;;17.39;44.05;102976.88;4898074;29;20395;-75
2021/12/20 02:16:14;;;;;;;15.82;14.13;;;;;;;17.39;43.77;102967.78;4898022;29;20088;-69
2021/12/20 02:18:40;;;;;;;16.33;14.63;;;;;;;17.29;43.89;102976.25;4898043;29;20032;-69
2021/12/20 02:21:06;;;;;;;21.60;16.67;;;;;;;17.39;43.88;102971.38;4887554;29;20554;-69
2021/12/20 02:23:31;;;;;;;21.85;16.85;;;;;;;17.48;43.54;102968.72;4878601;29;20065;-69
2021/12/20 02:25:59;;;;;;;22.25;17.50;;;;;;;17.52;43.50;102968.91;4878901;29;20057;-69
2021/12/20 02:28:25;;;;;;;20.50;16.00;;;;;;;17.35;43.93;102972.25;4878555;29;20017;-70
2021/12/20 02:38:55;;;;;;;24.20;15.85;;;;;;;17.13;44.17;102962.72;4878568;29;20025;-69
2021/12/20 02:41:29;;;;;;;23.42;16.95;;;;;;;17.14;44.22;102958.00;4878992;29;20040;-69
2021/12/20 02:43:57;;;;;;;19.30;15.02;;;;;;;17.13;44.28;102959.94;4879015;29;20112;-69
2021/12/20 02:48:55;;;;;;;20.95;15.90;;;;;;;17.21;44.04;102950.13;4878724;29;20408;-68
2021/12/20 02:51:23;;;;;;;17.63;15.75;;;;;;;17.27;43.90;102948.94;4878994;29;20580;-77
2021/12/20 02:53:50;;;;;;;18.13;15.57;;;;;;;17.20;44.13;102949.31;4878814;29;20058;-78
2021/12/20 02:56:16;;;;;;;21.27;16.38;;;;;;;17.15;44.51;102948.59;4878634;29;20105;-69
2021/12/20 02:58:42;;;;;;;22.88;18.00;;;;;;;17.03;44.79;102953.78;4878725;29;20116;-70
2021/12/20 03:01:07;;;;;;;21.13;15.90;;;;;;;17.08;44.90;102951.78;4878757;29;20112;-69
2021/12/20 03:03:33;;;;;;;23.30;16.58;;;;;;;17.02;45.00;102941.13;4861981;29;20093;-69
2021/12/20 03:05:58;;;;;;;18.65;16.08;;;;;;;17.22;44.40;102949.00;4878600;29;20025;-69
2021/12/20 03:08:24;;;;;;;15.23;13.63;;;;;;;17.12;44.62;102944.50;4878673;29;20028;-69
2021/12/20 03:10:50;;;;;;;18.67;14.50;;;;;;;17.21;44.22;102944.63;4878598;29;20062;-76
2021/12/20 03:13:16;;;;;;;19.15;15.20;;;;;;;17.24;44.15;102949.53;4878753;29;20036;-76
2021/12/20 03:15:42;;;;;;;20.30;16.02;;;;;;;17.40;44.02;102950.06;4878616;29;20078;-69
2021/12/20 03:18:07;;;;;;;18.30;15.13;;;;;;;17.34;44.05;102938.28;4878861;29;20449;-69
2021/12/20 03:20:33;;;;;;;22.42;16.55;;;;;;;17.39;44.05;102943.72;4878635;29;20476;-76
2021/12/20 03:22:59;;;;;;;21.52;16.70;;;;;;;17.13;44.53;102937.84;4878470;29;20033;-69
2021/12/20 03:25:25;;;;;;;24.02;18.05;;;;;;;17.35;44.07;102928.88;4878693;29;20029;-69
2021/12/20 03:27:51;;;;;;;21.10;16.17;;;;;;;17.01;44.96;102934.78;4861782;29;20513;-69
2021/12/20 03:30:17;;;;;;;22.60;16.88;;;;;;;17.23;44.30;102936.00;4878484;29;20478;-69
2021/12/20 03:32:42;;;;;;;19.23;14.68;;;;;;;17.27;44.20;102931.53;4878356;29;20033;-69
2021/12/20 03:35:09;;;;;;;18.52;13.80;;;;;;;17.16;43.97;102926.22;4878954;29;20040;-69
2021/12/20 03:37:35;;;;;;;16.92;14.10;;;;;;;17.07;44.23;102929.94;4882096;29;20101;-69
2021/12/20 03:40:01;;;;;;;23.17;17.23;;;;;;;17.19;44.03;102920.06;4882108;29;20566;-74
2021/12/20 03:42:30;;;;;;;22.23;15.85;;;;;;;17.22;44.13;102920.56;4882112;29;20029;-69
2021/12/20 03:44:55;;;;;;;23.52;16.80;;;;;;;17.11;44.40;102919.94;4882013;29;20033;-69
2021/12/20 03:47:21;;;;;;;25.38;18.38;;;;;;;17.23;44.19;102911.16;4881998;29;20084;-69
2021/12/20 03:49:46;;;;;;;24.33;18.50;;;;;;;17.02;44.62;102907.97;4881749;29;20084;-78
2021/12/20 03:52:12;;;;;;;29.30;19.73;;;;;;;17.13;44.46;102909.41;4881873;29;20040;-69
2021/12/20 03:54:38;;;;;;;28.35;19.42;;;;;;;17.18;44.31;102915.66;4881471;29;20033;-69
2021/12/20 03:57:04;;;;;;;30.17;20.75;;;;;;;17.25;44.35;102922.75;4882111;29;20437;-70
2021/12/20 03:59:30;;;;;;;24.30;17.20;;;;;;;17.14;44.51;102911.84;4881995;29;20044;-69
2021/12/20 04:01:57;;;;;;;21.77;15.82;;;;;;;17.04;44.64;102925.88;4881572;29;20116;-77
2021/12/20 04:04:24;;;;;;;21.25;15.77;;;;;;;17.16;44.05;102909.63;4881657;29;20029;-70
2021/12/20 04:06:49;;;;;;;23.42;16.15;;;;;;;17.15;43.99;102918.19;4881736;29;20040;-70
2021/12/20 04:09:15;;;;;;;25.85;16.75;;;;;;;17.17;43.98;102921.50;4881569;29;20388;-69
2021/12/20 04:11:41;;;;;;;25.42;16.73;;;;;;;17.17;43.81;102922.31;4881531;29;20111;-69
2021/12/20 04:14:07;;;;;;;22.27;16.55;;;;;;;17.04;44.12;102917.59;4881511;29;20029;-70
2021/12/20 04:16:34;;;;;;;28.02;18.63;;;;;;;16.97;44.27;102914.41;4881536;29;20385;-69
2021/12/20 04:18:59;;;;;;;23.00;17.75;;;;;;;17.05;44.15;102912.88;4881680;29;20404;-69
2021/12/20 04:21:25;;;;;;;22.25;16.40;;;;;;;17.08;43.88;102913.09;4881609;29;20033;-69
2021/12/20 04:23:51;;;;;;;24.30;16.55;;;;;;;17.03;43.91;102910.44;4881572;29;20060;-69
2021/12/20 04:26:17;;;;;;;23.88;18.70;;;;;;;16.96;44.05;102911.94;4881307;29;20544;-69
2021/12/20 04:28:43;;;;;;;22.17;16.02;;;;;;;17.01;43.98;102904.41;4881166;29;20025;-69
2021/12/20 04:31:08;;;;;;;22.13;16.55;;;;;;;16.93;43.85;102910.63;4881376;29;20047;-69
2021/12/20 04:33:34;;;;;;;20.23;15.43;;;;;;;17.01;43.97;102907.16;4881221;29;20392;-69
2021/12/20 04:36:00;;;;;;;21.50;16.83;;;;;;;17.04;43.89;102903.78;4881146;29;20033;-69
2021/12/20 04:38:28;;;;;;;31.42;19.00;;;;;;;16.86;44.41;102902.72;4881126;29;20040;-69
2021/12/20 04:40:54;;;;;;;27.73;18.50;;;;;;;17.03;44.05;102896.63;4881057;29;20033;-69
2021/12/20 04:43:20;;;;;;;28.60;18.90;;;;;;;17.01;44.14;102896.09;4881042;29;20112;-69
2021/12/20 04:45:46;;;;;;;24.48;15.98;;;;;;;16.99;44.09;102892.81;4880701;29;20077;-78
2021/12/20 04:48:12;;;;;;;24.83;16.45;;;;;;;17.00;44.12;102896.38;4880750;29;20143;-69
2021/12/20 04:50:38;;;;;;;30.80;18.85;;;;;;;16.91;44.31;102894.34;4880954;29;20037;-69
2021/12/20 04:53:04;;;;;;;32.30;19.02;;;;;;;17.02;44.25;102892.22;4880877;29;20498;-69
2021/12/20 04:55:30;;;;;;;29.88;18.98;;;;;;;17.13;43.97;102896.41;4880804;29;20048;-69
2021/12/20 04:57:57;;;;;;;24.17;15.98;;;;;;;17.04;44.30;102900.19;4880833;29;20399;-69
2021/12/20 05:00:29;;;;;;;22.95;16.30;;;;;;;16.95;44.33;102897.31;4880728;29;20033;-69
2021/12/20 05:02:55;;;;;;;24.88;16.73;;;;;;;17.06;43.91;102898.75;4880788;29;20040;-69
2021/12/20 05:05:21;;;;;;;22.20;13.93;;;;;;;16.99;43.95;102892.81;4880724;29;20037;-69
2021/12/20 05:07:48;;;;;;;18.08;11.18;;;;;;;17.03;44.03;102884.75;4880536;29;20039;-69
2021/12/20 05:10:27;;;;;;;17.15;11.55;;;;;;;16.98;43.96;102891.19;4880478;29;20029;-69
2021/12/20 05:12:57;;;;;;;15.95;9.98;;;;;;;16.93;44.57;102888.53;4880512;29;20047;-69
2021/12/20 05:15:24;;;;;;;12.80;7.97;;;;;;;16.99;44.21;102889.22;4880391;29;20049;-69
2021/12/20 05:17:50;;;;;;;13.70;8.95;;;;;;;16.98;43.82;102884.84;4880447;29;20029;-69
2021/12/20 05:20:16;;;;;;;19.33;8.45;;;;;;;16.89;44.13;102879.19;4880336;29;20025;-69
2021/12/20 05:22:42;;;;;;;19.42;9.73;;;;;;;17.08;43.66;102879.97;4880374;29;20499;-69
2021/12/20 05:25:09;;;;;;;11.77;7.28;;;;;;;17.01;43.71;102881.47;4880277;29;20088;-69
2021/12/20 05:27:35;;;;;;;10.07;7.30;;;;;;;16.99;43.67;102876.25;4880284;29;20112;-68
2021/12/20 05:30:03;;;;;;;13.73;6.90;;;;;;;17.02;43.86;102874.84;4880143;29;20114;-69
2021/12/20 05:32:29;;;;;;;14.70;7.45;;;;;;;16.94;43.94;102875.53;4880095;29;20048;-69
2021/12/20 05:34:54;;;;;;;11.30;6.70;;;;;;;16.99;43.87;102879.00;4880053;29;20029;-69
2021/12/20 05:37:20;;;;;;;15.05;7.18;;;;;;;17.08;43.54;102874.44;4880007;29;20089;-69
2021/12/20 05:39:46;;;;;;;8.52;5.88;;;;;;;17.07;43.68;102871.94;4880034;29;20040;-71
2021/12/20 05:42:12;;;;;;;9.52;6.07;;;;;;;16.77;44.01;102873.34;4880025;29;20056;-68
2021/12/20 05:44:37;;;;;;;8.80;5.88;;;;;;;17.00;43.54;102875.13;4879974;29;20021;-68
2021/12/20 05:47:04;;;;;;;12.38;6.13;;;;;;;17.09;43.13;102872.50;4880182;29;20029;-73
2021/12/20 05:49:31;;;;;;;10.27;5.97;;;;;;;16.97;43.30;102870.22;4879617;29;20045;-69
2021/12/20 05:52:03;;;;;;;11.65;6.95;;;;;;;16.89;43.59;102868.16;4863047;29;20028;-74
2021/12/20 05:54:30;;;;;;;13.35;5.45;;;;;;;17.00;43.29;102871.53;4879854;29;20025;-69
2021/12/20 05:56:56;;;;;;;9.88;5.85;;;;;;;17.08;43.13;102868.09;4879666;29;20017;-69
2021/12/20 05:59:22;;;;;;;10.93;5.80;;;;;;;17.16;43.13;102864.63;4878919;29;20065;-69
2021/12/20 06:01:48;;;;;;;13.15;5.68;;;;;;;17.09;42.96;102862.25;4879683;29;20057;-69
2021/12/20 06:04:14;;;;;;;8.85;5.82;;;;;;;17.10;43.20;102866.66;4879513;29;20033;-69
2021/12/20 06:06:39;;;;;;;10.35;5.10;;;;;;;16.94;43.61;102867.25;4879421;29;20025;-69
2021/12/20 06:09:05;;;;;;;12.43;5.85;;;;;;;16.93;43.63;102866.44;4879537;29;20032;-69
2021/12/20 06:11:31;;;;;;;10.38;4.85;;;;;;;17.08;43.24;102865.31;4879463;29;20029;-73
2021/12/20 06:13:58;;;;;;;13.00;5.32;;;;;;;16.90;43.50;102861.50;4879452;29;20108;-68
2021/12/20 06:16:24;;;;;;;8.82;3.88;;;;;;;17.05;43.19;102863.16;4879417;29;20074;-68
2021/12/20 06:18:51;;;;;;;11.65;4.60;;;;;;;16.95;43.55;102857.84;4879244;29;20033;-69
2021/12/20 06:21:18;;;;;;;7.07;4.80;;;;;;;16.93;43.19;102858.16;4879317;29;20595;-69
2021/12/20 06:23:43;;;;;;;7.82;4.82;;;;;;;16.79;43.63;102860.06;4879417;29;20021;-69
2021/12/20 06:26:09;;;;;;;9.38;3.85;;;;;;;16.63;43.67;102851.22;4879272;29;20365;-68
2021/12/20 06:28:35;;;;;;;7.47;4.05;;;;;;;16.92;43.19;102853.72;4879191;29;20080;-69
2021/12/20 06:31:01;;;;;;;10.05;4.00;;;;;;;16.76;43.42;102857.91;4879116;29;20044;-68
2021/12/20 06:33:27;;;;;;;10.27;4.57;;;;;;;16.95;42.84;102853.13;4879149;29;20103;-69
2021/12/20 06:35:53;;;;;;;9.93;3.90;;;;;;;16.97;43.07;102852.81;4878376;29;20051;-70
2021/12/20 06:38:21;;;;;;;13.70;5.05;;;;;;;16.93;43.21;102847.09;4877453;29;20032;-69
2021/12/20 06:40:48;;;;;;;7.30;4.60;;;;;;;16.70;43.79;102856.34;4878917;29;20400;-69
2021/12/20 06:43:14;;;;;;;12.82;4.20;;;;;;;16.74;43.53;102857.38;4878956;29;20053;-69
2021/12/20 06:45:40;;;;;;;10.02;4.63;;;;;;;16.73;43.41;102856.56;4878947;29;20089;-68
2021/12/20 06:48:06;;;;;;;11.60;3.95;;;;;;;16.96;42.77;102853.94;4878707;29;20036;-67
2021/12/20 06:50:32;;;;;;;11.68;3.50;;;;;;;16.84;42.94;102857.19;4879025;29;20033;-67
2021/12/20 06:52:57;;;;;;;10.05;4.18;;;;;;;16.83;42.58;102861.09;4878894;29;20544;-67
2021/12/20 06:55:24;;;;;;;8.75;3.35;;;;;;;16.99;42.43;102853.34;4878881;29;20437;-67
2021/12/20 06:57:49;;;;;;;10.57;3.80;;;;;;;16.92;42.45;102848.19;4878812;29;20437;-68
2021/12/20 07:00:15;;;;;;;11.55;3.80;;;;;;;16.80;42.71;102845.13;4878577;29;20108;-67
2021/12/20 07:02:41;;;;;;;10.07;3.78;;;;;;;16.92;42.46;102849.03;4878982;29;20060;-67
2021/12/20 07:05:08;;;;;;;8.88;3.22;;;;;;;16.80;42.78;102834.91;4878629;29;20089;-67
2021/12/20 07:07:34;;;;;;;11.23;3.55;;;;;;;16.88;42.70;102842.50;4862055;29;20565;-67
2021/12/20 07:10:00;;;;;;;9.70;4.63;;;;;;;16.85;42.82;102853.31;4878564;29;20025;-67
2021/12/20 07:12:28;;;;;;;13.77;5.07;;;;;;;16.70;43.07;102854.44;4878570;29;20056;-69
2021/12/20 07:14:54;;;;;;;6.57;3.80;;;;;;;16.68;42.81;102844.75;4878596;29;20029;-69
2021/12/20 07:17:20;;;;;;;12.68;4.57;;;;;;;16.86;42.67;102843.94;4861909;29;20441;-69
2021/12/20 07:19:46;;;;;;;16.85;5.40;;;;;;;16.86;42.82;102850.25;4878612;29;20025;-77
2021/12/20 07:22:12;;;;;;;8.50;3.65;;;;;;;16.52;43.19;102844.22;4878535;29;20074;-74
2021/12/20 07:24:38;;;;;;;5.00;3.45;;;;;;;16.63;42.71;102851.22;4878575;29;20052;-69
2021/12/20 07:27:04;;;;;;;15.45;4.30;;;;;;;16.87;42.09;102851.09;4878350;29;20033;-68
2021/12/20 07:29:29;;;;;;;11.63;4.63;;;;;;;16.68;42.29;102844.75;4878025;29;20377;-69
2021/12/20 07:31:55;;;;;;;8.77;4.22;;;;;;;16.89;41.97;102844.13;4876507;29;20503;-77
2021/12/20 07:34:21;;;;;;;10.70;4.53;;;;;;;16.89;42.03;102849.63;4878105;29;20029;-70
2021/12/20 07:36:46;;;;;;;13.13;4.18;;;;;;;16.83;42.22;102847.28;4878397;29;20029;-69
2021/12/20 07:39:12;;;;;;;13.45;4.90;;;;;;;16.89;42.05;102837.78;4878326;29;20045;-69
2021/12/20 07:41:37;;;;;;;10.68;4.30;;;;;;;16.86;42.36;102841.16;4877593;29;20043;-68
2021/12/20 07:44:03;;;;;;;7.28;4.20;;;;;;;16.95;42.23;102833.00;4876143;29;20029;-74
2021/12/20 07:46:29;;;;;;;13.10;4.40;;;;;;;16.89;42.60;102835.03;4878273;29;20374;-68
2021/12/20 07:48:54;;;;;;;12.23;4.38;;;;;;;16.92;42.63;102835.22;4878171;29;20385;-69
2021/12/20 07:51:22;;;;;;;18.77;5.40;;;;;;;17.02;42.07;102834.22;4878061;29;20039;-68
2021/12/20 07:53:48;;;;;;;9.98;4.57;;;;;;;17.08;42.04;102834.94;4878124;29;20037;-68
2021/12/20 07:56:16;;;;;;;15.82;5.90;;;;;;;17.07;41.94;102822.25;4878095;29;20445;-68
2021/12/20 07:58:42;;;;;;;10.45;5.57;;;;;;;16.91;42.64;102824.47;4878165;29;20040;-69
2021/12/20 08:01:07;;;;;;;14.70;6.32;;;;;;;17.08;42.25;102829.44;4878108;29;20029;-68
2021/12/20 08:03:34;;;;;;;15.40;6.82;;;;;;;16.99;42.26;102829.28;4878060;29;20033;-68
2021/12/20 08:06:00;;;;;;;11.88;6.28;;;;;;;16.90;42.31;102820.09;4877810;29;20025;-68
2021/12/20 08:08:26;;;;;;;9.20;5.20;;;;;;;17.01;42.28;102829.81;4877984;29;20043;-68
2021/12/20 08:10:51;;;;;;;13.80;5.05;;;;;;;16.85;42.55;102821.03;4877435;29;20104;-68
2021/12/20 08:13:17;;;;;;;8.07;4.57;;;;;;;16.91;42.32;102824.47;4877774;29;20068;-68
2021/12/20 08:15:43;;;;;;;11.68;4.80;;;;;;;16.82;42.64;102820.78;4877715;29;20025;-69
2021/12/20 08:18:08;;;;;;;9.27;5.05;;;;;;;16.77;42.70;102820.88;4877840;29;20073;-67
2021/12/20 08:20:34;;;;;;;15.13;5.07;;;;;;;17.10;42.19;102821.63;4877851;29;20484;-71
2021/12/20 08:23:01;;;;;;;18.05;6.18;;;;;;;16.90;42.44;102833.88;4880809;29;20029;-75
2021/12/20 08:25:27;;;;;;;9.13;4.50;;;;;;;17.01;42.21;102831.78;4881656;29;20029;-88
2021/12/20 08:27:53;;;;;;;12.77;4.93;;;;;;;17.01;41.84;102827.06;4898975;29;20093;-72
2021/12/20 08:30:22;;;;;;;17.52;5.60;;;;;;;17.04;41.91;102829.19;4867577;29;20079;-73
2021/12/20 08:32:48;;;;;;;13.88;5.38;;;;;;;17.02;42.59;102827.88;4848542;29;20063;-72
2021/12/20 08:35:16;;;;;;;12.05;4.75;;;;;;;17.01;42.21;102818.78;4865435;29;20033;-73
2021/12/20 08:37:42;;;;;;;21.15;5.65;;;;;;;16.91;42.27;102827.25;4865627;29;20387;-73
2021/12/20 08:40:11;;;;;;;31.23;6.60;;;;;;;16.97;42.22;102837.06;4865644;29;20041;-74
2021/12/20 08:42:37;;;;;;;16.55;5.32;;;;;;;17.04;42.11;102833.91;4865164;29;20107;-73
2021/12/20 08:45:05;;;;;;;12.77;4.35;;;;;;;16.83;42.48;102831.53;4864109;29;20157;-73
2021/12/20 08:47:32;;;;;;;11.30;4.10;;;;;;;16.98;41.84;102827.66;4868256;29;20040;-73
2021/12/20 08:49:59;;;;;;;9.93;4.80;;;;;;;16.99;41.90;102826.53;4879702;29;20076;-73
2021/12/20 08:52:25;;;;;;;13.02;4.70;;;;;;;17.03;41.77;102824.00;4880731;29;20047;-92
2021/12/20 08:54:50;;;;;;;10.55;5.15;;;;;;;17.19;41.54;102830.84;4880745;29;20025;-73
2021/12/20 08:57:16;;;;;;;16.95;5.85;;;;;;;17.23;41.54;102828.28;4880704;29;20117;-73
2021/12/20 08:59:42;;;;;;;11.38;4.50;;;;;;;17.06;41.97;102829.72;4881080;29;20032;-72
2021/12/20 09:02:09;;;;;;;17.38;5.45;;;;;;;17.18;41.41;102824.50;4880764;29;20041;-91
2021/12/20 09:04:35;;;;;;;17.58;5.70;;;;;;;17.04;41.52;102820.91;4880767;29;20036;-73
2021/12/20 09:07:01;;;;;;;15.52;5.13;;;;;;;17.12;41.37;102820.19;4880741;29;20140;-73
2021/12/20 09:09:27;;;;;;;19.00;5.53;;;;;;;17.00;41.86;102822.63;4880772;29;20044;-73
2021/12/20 09:11:53;;;;;;;14.27;4.82;;;;;;;16.95;42.23;102825.53;4880677;29;20033;-73
2021/12/20 09:14:18;;;;;;;19.83;5.25;;;;;;;16.93;42.44;102833.31;4880524;29;20488;-73
2021/12/20 09:16:44;;;;;;;21.60;6.70;;;;;;;17.27;41.74;102832.06;4863843;29;20037;-73
2021/12/20 09:19:09;;;;;;;18.83;5.55;;;;;;;17.49;41.44;102832.16;4880477;29;20033;-73
2021/12/20 09:21:35;;;;;;;15.98;5.45;;;;;;;17.37;41.85;102826.31;4880476;29;20065;-72
2021/12/20 09:24:04;;;;;;;9.18;5.45;;;;;;;17.27;41.75;102830.13;4880332;29;20037;-91
2021/12/20 09:26:30;;;;;;;11.10;5.30;;;;;;;16.83;42.56;102825.19;4880339;29;20060;-73
2021/12/20 09:28:56;;;;;;;11.50;5.07;;;;;;;17.25;41.74;102823.28;4880380;29;20666;-73
2021/12/20 09:31:21;;;;;;;18.17;5.60;;;;;;;17.30;41.46;102825.91;4880307;29;20036;-73
2021/12/20 09:33:47;;;;;;;13.95;5.45;;;;;;;17.25;41.53;102826.03;4879529;29;20433;-73
2021/12/20 09:36:12;;;;;;;9.45;4.13;;;;;;;17.13;41.70;102826.53;4880379;29;20037;-73
2021/12/20 09:38:38;;;;;;;16.67;4.90;;;;;;;17.31;41.14;102824.81;4880209;29;20033;-73
2021/12/20 09:43:34;;;;;;;8.00;4.15;;;;;;;17.24;41.17;102822.47;4880327;29;20066;-72
2021/12/20 09:46:00;;;;;;;11.27;4.53;;;;;;;17.50;40.73;102819.97;4879834;29;20040;-72
2021/12/20 09:48:26;;;;;;;12.63;4.68;;;;;;;17.44;40.97;102819.25;4879844;29;20057;-71
2021/12/20 09:50:52;;;;;;;8.57;4.25;;;;;;;17.36;41.19;102821.91;4879767;29;20128;-71
2021/12/20 09:53:17;;;;;;;17.42;4.80;;;;;;;17.12;41.59;102813.84;4879593;29;20039;-75
2021/12/20 09:55:48;;;;;;;13.00;4.75;;;;;;;17.46;41.18;102824.50;4879705;29;20157;-73
2021/12/20 09:58:14;;;;;;;8.45;4.85;;;;;;;17.33;41.18;102817.84;4879852;29;20036;-73
2021/12/20 10:00:40;;;;;;;15.80;5.22;;;;;;;17.53;41.05;102819.31;4879761;29;20048;-73
2021/12/20 10:03:06;;;;;;;11.65;5.55;;;;;;;17.56;41.07;102818.72;4879730;29;20485;-72
2021/12/20 10:05:34;;;;;;;14.10;5.05;;;;;;;17.49;41.42;102821.09;4879731;29;20025;-73
2021/12/20 10:08:09;;;;;;;18.70;6.05;;;;;;;17.43;41.52;102822.31;4879597;29;20056;-73
2021/12/20 10:10:45;;;;;;;17.88;5.55;;;;;;;17.33;41.75;102830.84;4864240;29;20029;-92
2021/12/20 10:13:34;;;;;;;10.23;3.58;;;;;;;17.45;41.26;102834.69;4879689;29;20033;-72
2021/12/20 10:16:03;;;;;;;13.27;3.80;;;;;;;17.10;42.05;102827.97;4879277;29;20044;-73
2021/12/20 10:18:33;;;;;;;10.13;5.00;;;;;;;17.30;41.48;102825.91;4862654;29;20041;-71
2021/12/20 10:21:02;;;;;;;14.90;6.22;;;;;;;17.44;41.07;102837.78;4879155;29;20092;-72
2021/12/20 10:23:45;;;;;;;10.57;4.32;;;;;;;17.36;41.19;102832.97;4879556;29;20305;-72
2021/12/20 10:26:18;;;;;;;7.63;3.15;;;;;;;17.29;41.30;102829.81;4879354;29;20060;-72
2021/12/20 10:28:44;;;;;;;12.60;4.38;;;;;;;17.70;40.77;102825.06;4879364;29;20029;-72
2021/12/20 10:31:20;;;;;;;15.90;5.55;;;;;;;17.64;40.80;102831.00;4879024;29;20096;-72
2021/12/20 10:33:55;;;;;;;16.13;4.50;;;;;;;17.61;41.11;102826.91;4879274;29;20116;-91
2021/12/20 10:36:21;;;;;;;20.13;4.85;;;;;;;17.57;41.26;102831.41;4879227;29;20087;-72
2021/12/20 10:38:56;;;;;;;15.52;3.67;;;;;;;17.50;41.10;102835.72;4879296;29;20487;-85
2021/12/20 10:41:29;;;;;;;13.70;4.40;;;;;;;17.59;40.70;102829.16;4879370;29;20037;-73
2021/12/20 10:44:00;;;;;;;12.98;4.85;;;;;;;17.42;40.86;102828.97;4879025;29;20438;-72
2021/12/20 10:46:31;;;;;;;13.82;3.70;;;;;;;17.63;40.64;102830.19;4878884;29;20136;-73
2021/12/20 10:49:11;;;;;;;13.15;4.35;;;;;;;17.71;40.54;102831.44;4878822;29;20090;-90
2021/12/20 10:51:40;;;;;;;16.25;4.50;;;;;;;17.66;40.89;102825.97;4879044;29;20060;-73
2021/12/20 10:54:12;;;;;;;10.30;3.55;;;;;;;17.63;40.93;102835.72;4878878;29;20033;-73
2021/12/20 10:56:46;;;;;;;8.85;4.97;;;;;;;17.56;40.96;102829.78;4879116;29;20438;-73
2021/12/20 10:59:12;;;;;;;14.13;4.57;;;;;;;17.57;40.90;102823.13;4879071;29;20029;-73
2021/12/20 11:04:12;;;;;;;17.77;4.88;;;;;;;17.55;41.00;102822.63;4878970;29;20062;-73
2021/12/20 11:06:58;;;;;;;11.80;4.38;;;;;;;17.70;40.59;102819.56;4878902;29;20418;-73
2021/12/20 11:09:33;;;;;;;15.85;4.43;;;;;;;17.58;40.68;102827.53;4861942;29;20025;-73
2021/12/20 11:12:02;;;;;;;18.60;5.35;;;;;;;17.68;40.36;102826.47;4878711;29;20047;-73
2021/12/20 11:14:34;;;;;;;15.82;4.70;;;;;;;17.57;40.78;102825.06;4878638;29;20361;-73
2021/12/20 11:17:02;;;;;;;12.38;4.97;;;;;;;17.62;40.81;102825.78;4878682;29;20062;-73
2021/12/20 11:19:32;;;;;;;24.63;6.00;;;;;;;17.49;40.96;102821.09;4878678;29;20033;-73
2021/12/20 11:22:12;;;;;;;8.18;3.40;;;;;;;17.39;41.00;102824.09;4878674;29;20477;-73
2021/12/20 11:25:02;;;;;;;15.35;5.22;;;;;;;17.41;41.30;102816.28;4878936;29;20495;-73
2021/12/20 11:27:32;;;;;;;6.97;3.92;;;;;;;17.48;41.18;102812.00;4878715;29;20041;-72
2021/12/20 11:30:00;;;;;;;15.35;3.95;;;;;;;17.35;41.42;102807.28;4878834;29;20093;-73
2021/12/20 11:32:27;;;;;;;12.65;4.07;;;;;;;17.39;41.10;102813.84;4878423;29;20434;-72
2021/12/20 11:34:53;;;;;;;15.95;4.97;;;;;;;17.47;41.31;102809.53;4861790;29;20464;-74
2021/12/20 11:37:22;;;;;;;17.30;6.07;;;;;;;17.46;41.32;102802.38;4878647;29;20437;-73